Time;durP1;ratioP1;P1;durP2;ratioP2;P2;SDS_P1;SDS_P2;PMS_P1;PMS_P2;Temp;Humidity;BMP_temperature;BMP_pressure;BME280_temperature;BME280_humidity;BME280_pressure;Samples;Min_cycle;Max_cycle;Signal;HPM_P1;HPM_P2
2022/06/06 00:01:53;;;;;;;4.20;2.20;;;;;;;19.88;65.04;99977.72;4982612;28;20042;-82
2022/06/06 00:04:21;;;;;;;4.28;2.00;;;;;;;19.88;65.01;99978.56;4987153;28;20103;-82
2022/06/06 00:06:48;;;;;;;4.25;2.35;;;;;;;19.87;65.05;99976.03;5002850;28;20493;-82
2022/06/06 00:09:16;;;;;;;5.50;2.50;;;;;;;19.87;64.92;99973.34;5019013;28;20091;-82
2022/06/06 00:11:43;;;;;;;3.63;2.10;;;;;;;19.85;64.76;99975.44;4991093;28;20049;-82
2022/06/06 00:14:11;;;;;;;6.55;2.28;;;;;;;19.82;64.70;99967.72;5005698;28;20060;-82
2022/06/06 00:16:39;;;;;;;3.75;2.38;;;;;;;19.79;64.87;99970.78;4986336;28;20056;-82
2022/06/06 00:19:08;;;;;;;5.85;2.03;;;;;;;19.77;64.53;99972.84;4987575;28;20049;-82
2022/06/06 00:21:35;;;;;;;5.05;2.00;;;;;;;19.75;64.62;99967.66;4983615;28;20038;-82
2022/06/06 00:24:03;;;;;;;4.43;2.30;;;;;;;19.72;64.68;99959.97;4991459;28;20075;-82
2022/06/06 00:26:31;;;;;;;6.63;2.60;;;;;;;19.71;64.85;99966.38;4973169;28;20132;-80
2022/06/06 00:28:58;;;;;;;4.70;2.72;;;;;;;19.69;64.78;99954.94;4983022;28;20068;-85
2022/06/06 00:36:57;;;;;;;4.53;2.42;;;;;;;19.67;64.66;99954.31;4971280;28;20041;-83
2022/06/06 00:39:25;;;;;;;2.55;2.35;;;;;;;19.64;64.85;99957.34;4985708;28;20041;-83
2022/06/06 00:41:53;;;;;;;5.80;2.25;;;;;;;19.62;64.74;99954.88;4974885;28;20044;-83
2022/06/06 00:44:27;;;;;;;4.32;3.00;;;;;;;19.61;64.46;99955.03;4991458;28;20111;-82
2022/06/06 00:47:11;;;;;;;7.72;2.97;;;;;;;19.57;65.38;99951.09;4981642;28;20509;-83
2022/06/06 00:49:49;;;;;;;10.52;3.17;;;;;;;19.56;64.90;99944.84;4971635;28;20400;-83
2022/06/06 00:52:30;;;;;;;5.10;2.63;;;;;;;19.56;64.78;99944.00;4979909;28;20578;-83
2022/06/06 00:55:01;;;;;;;5.05;2.70;;;;;;;19.55;64.57;99951.25;4954735;28;20045;-82
2022/06/06 00:57:31;;;;;;;9.75;2.53;;;;;;;19.53;64.32;99947.91;4987346;28;20060;-86
2022/06/06 01:00:00;;;;;;;5.88;2.88;;;;;;;19.53;64.71;99946.06;4973461;28;20048;-80
2022/06/06 01:02:27;;;;;;;5.82;2.67;;;;;;;19.52;64.59;99955.16;4958432;28;20469;-87
2022/06/06 01:04:55;;;;;;;3.85;2.50;;;;;;;19.52;64.66;99940.88;4994813;28;20152;-86
2022/06/06 01:07:22;;;;;;;6.50;2.70;;;;;;;19.52;64.72;99941.69;4984086;28;20042;-83
2022/06/06 01:09:49;;;;;;;7.22;3.55;;;;;;;19.55;64.95;99945.88;4973501;28;20409;-83
2022/06/06 01:12:17;;;;;;;5.32;3.08;;;;;;;19.55;65.07;99936.97;4990946;28;20514;-83
2022/06/06 01:14:56;;;;;;;5.95;2.90;;;;;;;19.54;65.17;99930.75;4994057;28;20060;-82
2022/06/06 01:17:29;;;;;;;7.00;3.33;;;;;;;19.56;65.12;99927.84;4954232;28;20048;-83
2022/06/06 01:20:07;;;;;;;6.25;3.30;;;;;;;19.52;65.42;99933.63;4995512;28;20053;-83
2022/06/06 01:23:04;;;;;;;8.32;3.17;;;;;;;19.50;65.22;99932.97;4998632;28;20092;-81
2022/06/06 01:25:51;;;;;;;4.32;3.00;;;;;;;19.50;65.11;99930.28;4952499;28;20054;-81
2022/06/06 01:28:39;;;;;;;11.43;3.35;;;;;;;19.48;65.23;99926.09;4952304;28;20109;-82
2022/06/06 01:31:10;;;;;;;5.20;3.25;;;;;;;19.49;65.20;99919.72;4954504;28;20050;-80
2022/06/06 01:34:11;;;;;;;8.00;3.40;;;;;;;19.48;65.46;99926.09;4978919;28;20132;-84
2022/06/06 01:36:39;;;;;;;8.30;3.50;;;;;;;19.51;65.16;99929.28;4925837;28;20820;-83
2022/06/06 01:39:10;;;;;;;6.43;3.58;;;;;;;19.49;65.14;99911.63;4979944;28;20048;-86
2022/06/06 01:41:42;;;;;;;6.65;3.63;;;;;;;19.46;65.37;99915.56;4975179;28;20050;-86
2022/06/06 01:44:26;;;;;;;5.72;3.85;;;;;;;19.47;65.52;99913.69;4958191;28;20449;-86
2022/06/06 01:46:54;;;;;;;8.40;4.00;;;;;;;19.48;65.12;99910.78;4988209;28;20413;-86
2022/06/06 01:49:23;;;;;;;6.15;4.18;;;;;;;19.47;65.28;99908.28;5002655;28;20047;-86
2022/06/06 01:52:02;;;;;;;5.72;3.70;;;;;;;19.44;65.39;99911.38;5001366;28;20053;-86
2022/06/06 01:54:29;;;;;;;6.85;4.28;;;;;;;19.44;65.31;99914.06;4989354;28;20049;-81
2022/06/06 01:56:57;;;;;;;6.20;3.95;;;;;;;19.42;65.21;99916.94;5007906;28;20061;-80
2022/06/06 01:59:24;;;;;;;6.93;4.35;;;;;;;19.42;65.26;99908.03;4985593;28;20058;-81
2022/06/06 02:01:52;;;;;;;6.68;4.15;;;;;;;19.40;65.29;99912.78;4979892;28;20068;-85
2022/06/06 02:04:19;;;;;;;6.72;4.07;;;;;;;19.39;65.40;99908.44;5003777;28;20042;-85
2022/06/06 02:06:45;;;;;;;6.88;4.05;;;;;;;19.38;65.28;99915.66;4996903;28;20050;-86
2022/06/06 02:09:12;;;;;;;7.75;4.10;;;;;;;19.37;65.34;99905.91;5000662;28;20053;-85
2022/06/06 02:11:39;;;;;;;8.50;5.25;;;;;;;19.37;65.49;99907.78;4996939;28;20042;-86
2022/06/06 02:14:34;;;;;;;7.18;4.93;;;;;;;19.31;65.60;99901.31;4982799;28;20049;-82
2022/06/06 02:17:01;;;;;;;5.50;4.65;;;;;;;19.34;65.50;99908.16;4942550;28;20041;-87
2022/06/06 02:19:28;;;;;;;9.75;4.63;;;;;;;19.33;65.63;99901.09;4999191;28;20049;-86
2022/06/06 02:21:55;;;;;;;9.75;4.32;;;;;;;19.33;65.51;99907.31;4986663;28;20045;-86
2022/06/06 02:24:22;;;;;;;9.07;4.63;;;;;;;19.32;65.24;99911.03;4996425;28;20465;-86
2022/06/06 02:26:48;;;;;;;7.45;4.10;;;;;;;19.29;65.53;99906.88;5017949;28;20455;-86
2022/06/06 02:29:15;;;;;;;7.45;4.75;;;;;;;19.28;65.39;99920.50;4994710;28;20128;-86
2022/06/06 02:31:42;;;;;;;6.45;4.53;;;;;;;19.28;65.61;99923.19;4977749;28;20482;-86
2022/06/06 02:34:09;;;;;;;6.70;3.85;;;;;;;19.28;65.36;99917.81;4985606;28;20136;-87
2022/06/06 02:36:36;;;;;;;9.25;4.93;;;;;;;19.25;65.40;99919.03;4987889;28;20056;-84
2022/06/06 02:39:05;;;;;;;7.00;4.82;;;;;;;19.25;65.38;99919.03;4994532;28;20214;-86
2022/06/06 02:41:32;;;;;;;12.18;4.30;;;;;;;19.23;65.30;99913.03;4961469;28;20046;-87
2022/06/06 02:43:59;;;;;;;11.27;5.03;;;;;;;19.20;65.35;99918.75;4990422;28;20042;-84
2022/06/06 02:46:26;;;;;;;8.40;4.90;;;;;;;19.17;65.48;99916.47;4986266;28;20050;-83
2022/06/06 02:48:53;;;;;;;13.57;5.55;;;;;;;19.16;65.38;99922.03;4996386;28;20049;-84
2022/06/06 02:51:19;;;;;;;8.90;5.40;;;;;;;19.11;65.24;99919.91;4982544;28;20049;-84
2022/06/06 02:53:46;;;;;;;6.93;4.63;;;;;;;19.09;65.15;99930.88;5003913;28;20049;-87
2022/06/06 02:56:13;;;;;;;6.78;4.70;;;;;;;19.07;65.20;99922.13;5009905;28;20062;-87
2022/06/06 02:58:40;;;;;;;6.32;4.45;;;;;;;19.05;65.24;99926.88;4972338;28;20406;-87
2022/06/06 03:01:09;;;;;;;6.75;4.75;;;;;;;19.04;65.10;99927.06;4982578;28;20112;-86
2022/06/06 03:03:37;;;;;;;8.10;5.07;;;;;;;19.05;65.31;99923.34;4989889;28;20501;-85
2022/06/06 03:06:04;;;;;;;10.88;5.43;;;;;;;19.02;65.54;99927.25;4977961;28;20041;-86
2022/06/06 03:08:48;;;;;;;11.13;5.70;;;;;;;18.97;65.45;99937.75;5012217;28;20556;-87
2022/06/06 03:11:35;;;;;;;;;;;;;;;18.93;65.68;99930.22;4984128;28;20046;-87
2022/06/06 03:14:10;;;;;;;6.32;4.97;;;;;;;18.99;65.18;99937.56;4949260;28;19928;-86
2022/06/06 03:23:24;;;;;;;6.03;5.20;;;;;;;18.82;65.53;99939.63;4937873;28;20043;-87
2022/06/06 03:26:06;;;;;;;7.25;5.05;;;;;;;18.82;65.73;99948.53;4936886;28;20056;-87
2022/06/06 03:28:54;;;;;;;9.35;5.25;;;;;;;18.81;65.67;99957.63;4982106;28;20116;-86
2022/06/06 03:31:34;;;;;;;9.95;5.40;;;;;;;18.80;65.87;99957.78;4956137;28;20048;-84
2022/06/06 03:34:25;;;;;;;8.15;4.88;;;;;;;18.76;65.95;99953.84;5001098;28;20041;-84
2022/06/06 03:37:19;;;;;;;7.93;4.95;;;;;;;18.76;65.69;99967.28;4936481;28;20121;-84
2022/06/06 03:39:55;;;;;;;6.65;5.30;;;;;;;18.76;65.80;99967.28;4940185;28;20045;-84
2022/06/06 03:42:40;;;;;;;7.07;5.72;;;;;;;18.71;65.87;99972.34;4961292;28;20414;-86
2022/06/06 03:45:12;;;;;;;7.97;5.20;;;;;;;18.75;65.76;99973.63;4988719;28;20060;-87
2022/06/06 03:48:23;;;;;;;4.65;4.20;;;;;;;18.69;66.42;99977.06;5032796;28;20429;-87
2022/06/06 03:50:52;;;;;;;6.32;4.55;;;;;;;18.75;66.30;99970.94;4942246;28;20050;-86
2022/06/06 03:53:38;;;;;;;5.38;4.15;;;;;;;18.70;66.20;99976.03;5022283;28;20068;-87
2022/06/06 03:56:24;;;;;;;6.10;4.40;;;;;;;18.69;66.26;99975.22;4960796;28;20509;-86
2022/06/06 03:58:52;;;;;;;6.13;3.78;;;;;;;18.74;66.07;99971.97;4974949;28;20057;-81
2022/06/06 04:01:21;;;;;;;6.35;4.25;;;;;;;18.71;66.04;99986.63;4958095;28;20041;-86
2022/06/06 04:03:49;;;;;;;6.82;3.90;;;;;;;18.71;66.25;99983.94;4988790;28;20060;-85
2022/06/06 04:06:18;;;;;;;3.90;3.50;;;;;;;18.70;66.37;99981.41;4985604;28;20046;-86
2022/06/06 04:08:44;;;;;;;5.57;4.30;;;;;;;18.71;66.40;99981.25;4974068;28;20046;-86
2022/06/06 04:11:31;;;;;;;5.20;3.50;;;;;;;18.70;66.63;99976.03;4987890;28;20054;-87
2022/06/06 04:14:36;;;;;;;4.20;3.80;;;;;;;18.66;66.72;99979.09;4926740;28;20053;-87
2022/06/06 04:17:25;;;;;;;9.25;4.30;;;;;;;18.66;66.92;99987.19;4885917;28;20045;-86
2022/06/06 04:20:14;;;;;;;6.20;4.85;;;;;;;18.60;67.69;99979.84;4981797;28;20053;-87
2022/06/06 04:23:06;;;;;;;7.53;5.43;;;;;;;18.54;68.38;99982.44;4967902;28;20061;-87
2022/06/06 04:25:45;;;;;;;6.55;5.63;;;;;;;18.56;68.78;99994.69;4970630;28;20050;-87
2022/06/06 04:28:46;;;;;;;10.38;6.03;;;;;;;18.77;68.85;99982.38;4999198;28;20524;-87
2022/06/06 04:31:24;;;;;;;6.65;5.65;;;;;;;18.95;68.50;99990.09;4948117;28;20129;-82
2022/06/06 04:34:09;;;;;;;10.15;6.45;;;;;;;19.03;68.78;99985.47;4982928;28;20136;-83
2022/06/06 04:36:45;;;;;;;6.97;6.00;;;;;;;19.23;68.38;99983.03;4981078;28;20425;-81
2022/06/06 04:39:17;;;;;;;10.88;5.93;;;;;;;19.40;68.28;99986.31;4970301;28;20054;-82
2022/06/06 04:41:50;;;;;;;12.43;7.10;;;;;;;19.57;68.23;99995.00;4994748;28;20057;-82
2022/06/06 04:44:23;;;;;;;9.40;5.05;;;;;;;19.71;67.62;99991.44;4987911;28;20057;-82
2022/06/06 04:47:21;;;;;;;7.05;5.78;;;;;;;19.75;67.05;99983.81;5004784;28;20045;-82
2022/06/06 04:49:48;;;;;;;8.18;4.85;;;;;;;19.84;66.78;99988.03;4943940;28;20124;-82
2022/06/06 04:52:15;;;;;;;10.10;5.00;;;;;;;19.87;66.61;99986.81;4984191;28;20045;-83
2022/06/06 04:54:44;;;;;;;7.55;5.57;;;;;;;19.81;66.23;99993.81;4967272;28;20049;-82
2022/06/06 04:57:12;;;;;;;5.22;4.70;;;;;;;19.81;66.22;99993.00;4952745;28;20046;-82
2022/06/06 04:59:39;;;;;;;7.55;4.93;;;;;;;19.78;66.74;99993.38;4969663;28;20068;-81
2022/06/06 05:02:09;;;;;;;8.10;5.18;;;;;;;19.76;66.72;99992.75;4996010;28;20739;-82
2022/06/06 05:04:36;;;;;;;8.45;5.38;;;;;;;19.77;66.73;99994.41;4970704;28;20397;-82
2022/06/06 05:07:23;;;;;;;8.52;6.20;;;;;;;19.71;66.81;99985.22;4960673;28;20058;-86
2022/06/06 05:10:16;;;;;;;9.38;5.70;;;;;;;19.71;66.89;99991.44;5001549;28;20046;-86
2022/06/06 05:13:02;;;;;;;7.22;5.05;;;;;;;19.69;67.17;99998.91;4942505;28;20143;-81
2022/06/06 05:15:42;;;;;;;7.85;6.20;;;;;;;19.64;67.90;99995.91;4976246;28;20050;-82
2022/06/06 05:18:22;;;;;;;10.52;6.00;;;;;;;19.65;67.88;100002.97;4975174;28;20049;-81
2022/06/06 05:21:13;;;;;;;7.22;6.00;;;;;;;19.60;67.93;100005.41;5012954;28;20129;-82
2022/06/06 05:23:56;;;;;;;12.60;6.40;;;;;;;19.62;68.21;100006.03;4983600;28;20037;-82
2022/06/06 05:26:32;;;;;;;9.85;6.20;;;;;;;19.61;67.93;99998.13;5021800;28;20042;-81
2022/06/06 05:29:17;;;;;;;12.68;7.60;;;;;;;19.64;68.34;99997.75;4968797;28;20142;-82
2022/06/06 05:32:13;;;;;;;10.15;6.15;;;;;;;19.59;68.75;100005.56;4952382;28;20042;-81
2022/06/06 05:34:48;;;;;;;9.48;6.05;;;;;;;19.64;68.66;100006.69;4955972;28;20052;-81
2022/06/06 05:37:46;;;;;;;9.63;6.70;;;;;;;19.62;69.26;100008.75;4954312;28;20563;-81
2022/06/06 05:40:34;;;;;;;10.80;6.97;;;;;;;19.68;69.42;100004.47;4947344;28;20048;-81
2022/06/06 05:43:13;;;;;;;12.32;6.57;;;;;;;19.76;69.88;100009.72;4923893;28;20409;-82
2022/06/06 05:45:49;;;;;;;8.55;6.78;;;;;;;19.89;69.65;100004.47;4977567;28;20045;-81
2022/06/06 05:48:26;;;;;;;10.45;7.22;;;;;;;20.00;69.65;100010.38;4982475;28;20038;-81
2022/06/06 05:51:15;;;;;;;10.40;6.47;;;;;;;20.05;69.98;100016.88;4989098;28;20108;-82
2022/06/06 05:54:06;;;;;;;11.82;6.30;;;;;;;20.11;69.83;100007.19;4957051;28;20042;-82
2022/06/06 05:56:45;;;;;;;9.93;7.07;;;;;;;20.13;70.22;100007.81;4992406;28;20384;-81
2022/06/06 05:59:34;;;;;;;7.28;6.22;;;;;;;20.14;69.93;100007.63;5002678;28;20060;-83
2022/06/06 06:02:29;;;;;;;8.38;6.50;;;;;;;20.23;69.93;100007.50;4981043;28;20049;-83
2022/06/06 06:05:23;;;;;;;9.30;7.35;;;;;;;20.27;69.45;100016.84;4904017;28;20047;-82
2022/06/06 06:08:09;;;;;;;7.53;6.50;;;;;;;20.31;69.80;100020.84;4962269;28;20038;-83
2022/06/06 06:10:45;;;;;;;6.68;5.63;;;;;;;20.32;68.80;100014.41;4994165;28;20041;-83
2022/06/06 06:13:25;;;;;;;9.20;6.38;;;;;;;20.34;68.37;100017.75;4987676;27;20724;-86
2022/06/06 06:15:55;;;;;;;8.98;5.75;;;;;;;20.34;68.16;100018.56;4998630;28;20046;-84
2022/06/06 06:18:29;;;;;;;13.63;6.07;;;;;;;20.30;67.72;100021.84;4979949;28;20477;-84
2022/06/06 06:21:20;;;;;;;10.32;6.32;;;;;;;20.26;67.46;100028.69;5004840;28;20371;-86
2022/06/06 06:23:54;;;;;;;9.38;5.35;;;;;;;20.31;67.35;100024.38;4987897;28;20038;-85
2022/06/06 06:26:21;;;;;;;10.00;6.65;;;;;;;20.36;67.58;100035.41;4945621;28;20588;-85
2022/06/06 06:28:49;;;;;;;11.38;6.18;;;;;;;20.35;67.82;100039.13;4975206;28;20046;-85
2022/06/06 06:31:33;;;;;;;7.18;6.22;;;;;;;20.26;67.65;100044.84;4975547;28;20045;-86
2022/06/06 06:34:04;;;;;;;7.88;6.20;;;;;;;20.33;67.93;100048.44;4993545;28;20049;-85
2022/06/06 06:36:42;;;;;;;8.13;5.60;;;;;;;20.34;67.96;100060.91;4996514;28;20034;-85
2022/06/06 06:39:22;;;;;;;8.05;5.90;;;;;;;20.32;67.43;100058.38;4975779;28;20053;-85
2022/06/06 06:42:10;;;;;;;8.98;5.78;;;;;;;20.29;67.90;100071.44;4997297;28;20050;-85
2022/06/06 06:44:40;;;;;;;7.70;6.30;;;;;;;20.33;67.27;100061.94;4985788;28;20125;-86
2022/06/06 06:47:11;;;;;;;7.10;5.50;;;;;;;20.32;67.12;100066.47;4973775;28;20035;-86
2022/06/06 06:49:54;;;;;;;8.73;6.00;;;;;;;20.31;66.99;100072.06;4942419;28;20051;-87
2022/06/06 06:52:34;;;;;;;7.70;5.40;;;;;;;20.34;66.97;100077.91;4978315;28;20387;-86
2022/06/06 06:55:19;;;;;;;11.82;6.05;;;;;;;20.32;67.27;100089.91;4958175;28;20054;-86
2022/06/06 06:58:17;;;;;;;9.45;5.63;;;;;;;20.28;67.50;100092.19;4968219;28;20038;-86
2022/06/06 07:00:51;;;;;;;9.05;5.25;;;;;;;20.31;67.35;100090.97;4967161;28;20046;-86
2022/06/06 07:10:05;;;;;;;6.45;5.13;;;;;;;20.27;67.59;100084.25;4926909;28;20062;-84
2022/06/06 07:12:37;;;;;;;8.05;5.18;;;;;;;20.36;67.38;100083.13;4944643;28;20069;-85
2022/06/06 07:15:20;;;;;;;7.07;5.93;;;;;;;20.34;67.09;100085.16;4978490;28;20043;-86
2022/06/06 07:17:52;;;;;;;8.73;5.47;;;;;;;20.37;67.15;100080.22;4991192;28;20054;-86
2022/06/06 07:20:20;;;;;;;9.20;6.07;;;;;;;20.45;67.05;100073.84;4962752;28;20049;-85
2022/06/06 07:23:05;;;;;;;7.50;5.72;;;;;;;20.31;67.44;100072.91;4988652;28;20134;-86
2022/06/06 07:25:47;;;;;;;9.25;6.35;;;;;;;20.42;66.91;100079.63;4952527;28;20042;-85
2022/06/06 07:28:18;;;;;;;10.82;6.82;;;;;;;20.48;67.05;100083.41;4923056;28;20042;-86
2022/06/06 07:30:48;;;;;;;12.68;6.60;;;;;;;20.43;67.51;100085.84;4954164;28;20043;-85
2022/06/06 07:33:34;;;;;;;11.32;6.93;;;;;;;20.50;67.24;100086.75;4981384;28;20125;-83
2022/06/06 07:36:22;;;;;;;12.20;8.23;;;;;;;20.45;67.51;100078.41;4964486;28;20482;-82
2022/06/06 07:39:13;;;;;;;9.25;7.88;;;;;;;20.44;67.33;100076.75;4980159;28;20043;-82
2022/06/06 07:42:10;;;;;;;15.07;8.57;;;;;;;20.42;66.40;100085.03;4979922;28;20479;-82
2022/06/06 07:45:00;;;;;;;10.45;9.25;;;;;;;20.44;66.41;100082.97;4932678;28;20391;-84
2022/06/06 07:47:46;;;;;;;11.20;9.07;;;;;;;20.44;66.22;100080.28;4920368;28;20047;-83
2022/06/06 07:50:24;;;;;;;12.00;8.60;;;;;;;20.44;66.29;100077.59;4961647;28;20054;-84
2022/06/06 07:53:06;;;;;;;10.52;9.30;;;;;;;20.52;66.05;100071.22;4963786;28;20085;-83
2022/06/06 07:55:49;;;;;;;14.20;8.40;;;;;;;20.53;65.57;100065.63;4962489;28;20046;-83
2022/06/06 07:58:20;;;;;;;9.82;8.18;;;;;;;20.57;66.09;100068.81;4938333;28;20471;-82
2022/06/06 08:01:06;;;;;;;10.68;8.43;;;;;;;20.59;65.94;100061.34;4939364;28;20101;-82
2022/06/06 08:04:01;;;;;;;8.40;7.50;;;;;;;20.60;66.01;100066.53;4955142;28;20035;-83
2022/06/06 08:06:37;;;;;;;9.48;7.50;;;;;;;20.56;65.96;100059.88;4963114;28;20042;-82
2022/06/06 08:09:11;;;;;;;10.60;8.48;;;;;;;20.57;66.04;100063.41;4960911;28;20082;-83
2022/06/06 08:11:54;;;;;;;13.43;8.55;;;;;;;20.62;66.10;100057.44;4960713;28;20376;-83
2022/06/06 08:14:34;;;;;;;10.18;7.88;;;;;;;20.54;65.92;100061.06;4913609;28;20406;-82
2022/06/06 08:17:28;;;;;;;10.00;8.15;;;;;;;20.56;65.42;100061.75;4941610;28;20046;-82
2022/06/06 08:20:18;;;;;;;9.57;7.80;;;;;;;20.56;66.23;100059.06;4903682;28;20062;-83
2022/06/06 08:22:45;;;;;;;9.00;7.35;;;;;;;20.56;66.37;100048.25;4922395;28;20101;-87
2022/06/06 08:25:15;;;;;;;11.38;6.97;;;;;;;20.53;66.71;100052.16;4960238;28;20054;-87
2022/06/06 08:27:47;;;;;;;9.15;7.20;;;;;;;20.54;65.85;100048.44;4943302;28;20062;-84
2022/06/06 08:30:15;;;;;;;11.07;6.93;;;;;;;20.62;65.75;100054.72;4963047;28;20053;-87
2022/06/06 08:32:45;;;;;;;10.23;6.53;;;;;;;20.63;65.66;100046.41;4975701;28;20169;-88
2022/06/06 08:35:12;;;;;;;8.18;6.70;;;;;;;20.64;65.89;100036.50;4961496;28;20419;-83
2022/06/06 08:37:50;;;;;;;7.80;5.60;;;;;;;20.62;65.96;100042.06;4964224;28;20430;-83
2022/06/06 08:40:24;;;;;;;7.97;5.60;;;;;;;20.63;65.53;100034.81;4950478;28;20050;-83
2022/06/06 08:43:02;;;;;;;9.90;6.05;;;;;;;20.63;65.42;100026.72;4965176;28;20065;-83
2022/06/06 08:45:53;;;;;;;7.03;5.45;;;;;;;20.54;66.00;100036.78;4986030;28;20046;-87
2022/06/06 08:48:57;;;;;;;6.97;5.90;;;;;;;20.66;66.30;100015.50;4944214;28;20065;-87
2022/06/06 08:51:39;;;;;;;7.78;5.78;;;;;;;20.70;65.36;100022.19;4927292;28;20046;-90
2022/06/06 08:54:06;;;;;;;6.30;5.35;;;;;;;20.79;66.38;100021.84;4925933;28;20074;-89
2022/06/06 08:56:55;;;;;;;7.65;5.10;;;;;;;20.90;65.09;100014.22;4961582;28;20042;-89
2022/06/06 09:00:01;;;;;;;11.68;5.38;;;;;;;20.87;63.83;100023.56;4971683;28;20093;-87
2022/06/06 09:02:49;;;;;;;7.07;5.25;;;;;;;20.90;63.22;100017.75;4933939;28;20113;-87
2022/06/06 09:05:53;;;;;;;7.53;4.63;;;;;;;20.91;64.20;100010.50;4967363;28;20051;-86
2022/06/06 09:08:25;;;;;;;5.10;4.60;;;;;;;21.05;64.00;100020.34;4944761;28;20074;-86
2022/06/06 09:11:17;;;;;;;6.70;4.38;;;;;;;21.05;62.84;100019.50;4954960;28;20053;-84
2022/06/06 09:14:10;;;;;;;7.22;4.10;;;;;;;21.10;62.61;100019.75;4978883;28;20046;-89
2022/06/06 09:16:57;;;;;;;7.45;4.55;;;;;;;21.05;62.09;100012.25;4909725;28;20518;-90
2022/06/06 09:19:27;;;;;;;5.80;4.32;;;;;;;21.12;61.92;100007.72;4958358;28;20054;-91
2022/06/06 09:25:48;;;;;;;5.97;4.07;;;;;;;21.12;62.18;100007.72;4919256;28;20046;-89
2022/06/06 09:28:43;;;;;;;7.40;4.88;;;;;;;21.10;61.55;100001.66;4986124;28;20047;-87
2022/06/06 09:31:35;;;;;;;5.10;4.13;;;;;;;21.10;62.48;100001.66;4919967;28;20077;-87
2022/06/06 09:34:53;;;;;;;6.65;4.80;;;;;;;21.11;61.49;100002.50;4949152;28;20502;-88
2022/06/06 09:37:31;;;;;;;6.38;4.30;;;;;;;21.10;62.79;99992.75;4896594;28;20703;-89
2022/06/06 09:40:18;;;;;;;6.80;4.78;;;;;;;21.05;63.33;100000.63;4966764;28;20050;-92
2022/06/06 09:43:03;;;;;;;7.93;4.35;;;;;;;21.14;62.20;99992.16;4910650;28;22127;-88
2022/06/06 09:45:37;;;;;;;7.28;4.38;;;;;;;21.25;62.62;99993.44;4947498;28;20039;-88
2022/06/06 09:48:25;;;;;;;4.40;4.00;;;;;;;21.24;62.05;99998.00;4962764;28;20558;-89
2022/06/06 09:51:44;;;;;;;5.50;4.32;;;;;;;21.30;61.98;100001.78;4960145;28;20121;-89
2022/06/06 10:01:09;;;;;;;7.78;4.43;;;;;;;21.43;61.80;99992.91;4954277;28;20060;-81
2022/06/06 10:04:04;;;;;;;5.07;3.92;;;;;;;21.46;60.58;99989.78;4945464;28;20053;-80
2022/06/06 10:06:42;;;;;;;4.68;4.03;;;;;;;21.50;61.28;99974.00;4959181;28;20046;-81
2022/06/06 10:09:26;;;;;;;7.18;3.53;;;;;;;21.50;62.16;99966.75;4978264;28;20046;-81
2022/06/06 10:11:55;;;;;;;4.53;4.13;;;;;;;21.66;62.24;99965.53;4942884;28;20054;-81
2022/06/06 10:14:42;;;;;;;5.10;3.40;;;;;;;21.74;60.76;99964.50;4959104;28;20105;-81
2022/06/06 10:17:21;;;;;;;4.55;3.58;;;;;;;21.75;60.71;99964.28;4964988;28;20073;-80
2022/06/06 10:20:05;;;;;;;5.40;3.38;;;;;;;21.81;59.87;99968.06;4950441;28;20038;-85
2022/06/06 10:23:03;;;;;;;4.30;3.30;;;;;;;21.74;58.70;99959.94;4946450;28;20050;-82
2022/06/06 10:25:42;;;;;;;6.18;3.88;;;;;;;21.91;59.41;99952.25;4955425;28;20058;-82
2022/06/06 10:28:47;;;;;;;5.07;3.50;;;;;;;21.92;59.38;99947.69;4926141;28;20068;-83
2022/06/06 10:31:32;;;;;;;7.00;5.28;;;;;;;22.02;59.52;99956.22;4922551;28;20794;-86
2022/06/06 10:34:08;;;;;;;7.15;3.50;;;;;;;22.06;56.53;99960.19;4926750;28;20042;-87
2022/06/06 10:36:46;;;;;;;4.32;3.20;;;;;;;22.05;55.70;99959.31;4993693;28;20720;-86
2022/06/06 10:39:30;;;;;;;6.68;3.75;;;;;;;22.09;56.39;99947.06;4958198;28;20050;-86
2022/06/06 10:42:22;;;;;;;8.10;4.68;;;;;;;22.03;56.54;99947.91;4973579;28;20050;-87
2022/06/06 10:45:16;;;;;;;4.40;3.50;;;;;;;22.04;56.19;99956.84;4942058;28;20046;-89
2022/06/06 10:47:47;;;;;;;7.72;4.20;;;;;;;21.97;57.88;99954.13;4940325;28;20050;-91
2022/06/06 10:50:20;;;;;;;4.63;3.72;;;;;;;21.95;57.80;99960.78;4939996;28;20046;-88
2022/06/06 10:53:12;;;;;;;7.22;4.10;;;;;;;21.78;56.60;99955.78;4950156;28;20053;-89
2022/06/06 10:56:08;;;;;;;5.60;3.55;;;;;;;21.80;57.25;99950.97;4990273;28;20047;-86
2022/06/06 10:59:05;;;;;;;7.75;5.07;;;;;;;21.79;57.29;99952.03;4929957;28;20046;-85
2022/06/06 11:02:10;;;;;;;4.35;3.00;;;;;;;21.72;57.10;99950.38;4929919;28;20403;-89
2022/06/06 11:09:23;;;;;;;5.65;3.55;;;;;;;21.73;57.69;99949.31;4959317;28;20534;-89
2022/06/06 11:12:08;;;;;;;4.25;3.50;;;;;;;21.78;57.41;99947.69;4968891;28;20054;-85
2022/06/06 11:14:44;;;;;;;4.53;2.85;;;;;;;21.95;57.50;99956.19;4928425;28;20046;-83
2022/06/06 11:17:42;;;;;;;3.80;3.40;;;;;;;22.00;57.37;99947.47;4965515;28;20493;-87
2022/06/06 11:20:42;;;;;;;7.10;2.72;;;;;;;21.89;57.14;99943.53;4945422;28;20047;-88
2022/06/06 11:23:42;;;;;;;3.53;2.72;;;;;;;21.94;54.56;99941.03;4919832;28;20481;-86
2022/06/06 11:26:25;;;;;;;4.03;2.67;;;;;;;21.91;54.78;99946.03;4964099;28;20133;-88
2022/06/06 11:29:28;;;;;;;3.20;2.90;;;;;;;21.97;54.96;99945.19;4972827;28;20152;-86
2022/06/06 11:32:00;;;;;;;3.53;2.60;;;;;;;21.95;54.49;99937.28;4902693;28;20047;-85
2022/06/06 11:34:39;;;;;;;5.40;2.38;;;;;;;22.07;54.87;99937.50;4958204;28;20077;-87
2022/06/06 11:37:24;;;;;;;5.25;2.40;;;;;;;22.04;53.61;99937.91;4989649;28;20050;-86
2022/06/06 11:40:11;;;;;;;2.45;2.25;;;;;;;22.04;52.72;99927.09;4976918;28;20057;-86
2022/06/06 11:43:12;;;;;;;4.03;2.35;;;;;;;22.01;53.09;99914.84;4973130;28;20052;-85
2022/06/06 11:45:54;;;;;;;2.17;1.98;;;;;;;22.10;53.77;99913.56;4948698;28;20126;-83
2022/06/06 11:48:43;;;;;;;2.88;1.85;;;;;;;22.11;52.28;99887.38;4945002;28;20053;-81
2022/06/06 11:51:45;;;;;;;2.58;2.20;;;;;;;22.03;51.71;99893.81;4992296;28;20057;-85
2022/06/06 11:54:15;;;;;;;2.22;2.00;;;;;;;22.06;53.22;99898.81;4930844;28;20533;-86
2022/06/06 11:57:06;;;;;;;5.53;2.30;;;;;;;22.02;52.23;99907.53;4953391;28;20544;-86
2022/06/06 12:03:40;;;;;;;3.00;2.20;;;;;;;21.99;52.47;99905.25;4926329;28;20038;-84
2022/06/06 12:06:22;;;;;;;3.83;2.63;;;;;;;22.14;53.85;99899.66;4975961;28;20062;-86
2022/06/06 12:08:57;;;;;;;2.65;1.90;;;;;;;22.17;52.86;99901.94;4990088;28;20137;-84
2022/06/06 12:11:51;;;;;;;3.92;2.50;;;;;;;22.08;52.85;99904.00;4977745;28;20054;-82
2022/06/06 12:14:36;;;;;;;4.60;2.22;;;;;;;22.13;52.41;99900.66;4940423;28;20434;-81
2022/06/06 12:17:33;;;;;;;3.58;2.38;;;;;;;22.14;52.26;99903.16;4972688;28;20102;-80
2022/06/06 12:20:24;;;;;;;4.47;2.65;;;;;;;22.27;52.50;99905.06;4921331;28;20054;-83
2022/06/06 12:23:06;;;;;;;2.95;2.60;;;;;;;22.33;52.77;99902.31;4997790;28;20493;-79
2022/06/06 12:25:54;;;;;;;2.70;2.50;;;;;;;22.27;52.52;99899.66;4977925;28;20042;-79
2022/06/06 12:28:49;;;;;;;5.20;2.45;;;;;;;22.29;52.97;99902.97;4941360;28;20049;-81
2022/06/06 12:31:38;;;;;;;3.90;2.70;;;;;;;22.27;52.52;99903.19;4915183;28;20046;-91
2022/06/06 12:39:02;;;;;;;4.85;2.95;;;;;;;22.28;52.16;99894.00;4934830;28;20519;-86
2022/06/06 12:41:38;;;;;;;5.18;2.65;;;;;;;22.23;53.08;99904.63;4914609;28;20121;-85
2022/06/06 12:44:33;;;;;;;3.72;2.80;;;;;;;22.13;53.78;99909.59;4920676;28;20043;-80
2022/06/06 12:47:16;;;;;;;4.50;2.60;;;;;;;22.16;54.14;99916.47;4912286;28;20126;-81
2022/06/06 12:49:47;;;;;;;;;;;;;;;21.99;54.48;99919.59;4939815;28;20139;-81
2022/06/06 12:52:33;;;;;;;5.72;2.90;;;;;;;21.95;54.58;99921.06;4919023;28;20013;-82
2022/06/06 12:55:43;;;;;;;3.70;3.17;;;;;;;22.00;55.05;99923.13;4939281;28;20047;-81
2022/06/06 12:58:46;;;;;;;3.83;2.67;;;;;;;22.02;55.51;99910.25;4880185;28;20058;-90
2022/06/06 13:01:55;;;;;;;5.10;2.75;;;;;;;21.92;55.17;99918.78;4898816;28;20040;-83
2022/06/06 13:04:15;;;;;;;4.40;2.90;;;;;;;22.02;55.62;99907.53;4885346;28;20130;-81
2022/06/06 13:07:06;;;;;;;3.85;2.78;;;;;;;21.98;55.79;99901.75;4941985;28;20051;-82
2022/06/06 13:10:01;;;;;;;6.22;2.80;;;;;;;21.99;56.80;99905.25;4951220;28;20050;-82
2022/06/06 13:12:55;;;;;;;6.57;2.92;;;;;;;22.06;57.02;99898.00;4935260;28;20063;-82